sensor_id;sensor_type;location;lat;lon;timestamp;P1;durP1;ratioP1;P2;durP2;ratioP2
50483;SDS011;36409;52.168;20.878;2023-07-24T00:00:50;8.10;;;4.83;;
50483;SDS011;36409;52.168;20.878;2023-07-24T00:03:31;6.93;;;4.70;;
50483;SDS011;36409;52.168;20.878;2023-07-24T00:06:00;5.93;;;4.33;;
50483;SDS011;36409;52.168;20.878;2023-07-24T00:08:29;7.77;;;4.77;;
50483;SDS011;36409;52.168;20.878;2023-07-24T00:10:58;9.10;;;4.47;;
50483;SDS011;36409;52.168;20.878;2023-07-24T00:13:27;8.00;;;4.57;;
50483;SDS011;36409;52.168;20.878;2023-07-24T00:15:56;8.47;;;4.80;;
50483;SDS011;36409;52.168;20.878;2023-07-24T00:18:31;9.87;;;4.73;;
50483;SDS011;36409;52.168;20.878;2023-07-24T00:21:00;8.17;;;4.47;;
50483;SDS011;36409;52.168;20.878;2023-07-24T00:23:29;8.33;;;4.47;;
50483;SDS011;36409;52.168;20.878;2023-07-24T00:26:00;8.75;;;4.85;;
50483;SDS011;36409;52.168;20.878;2023-07-24T00:28:29;7.67;;;4.30;;
50483;SDS011;36409;52.168;20.878;2023-07-24T00:30:59;7.80;;;4.47;;
50483;SDS011;36409;52.168;20.878;2023-07-24T00:33:28;7.87;;;4.73;;
50483;SDS011;36409;52.168;20.878;2023-07-24T00:35:57;8.65;;;4.60;;
50483;SDS011;36409;52.168;20.878;2023-07-24T00:38:28;7.70;;;4.70;;
50483;SDS011;36409;52.168;20.878;2023-07-24T00:40:57;6.67;;;4.27;;
50483;SDS011;36409;52.168;20.878;2023-07-24T00:43:26;6.80;;;4.03;;
50483;SDS011;36409;52.168;20.878;2023-07-24T00:45:56;8.20;;;4.80;;
50483;SDS011;36409;52.168;20.878;2023-07-24T00:48:25;9.90;;;5.00;;
50483;SDS011;36409;52.168;20.878;2023-07-24T00:50:54;8.40;;;4.30;;
50483;SDS011;36409;52.168;20.878;2023-07-24T00:53:25;9.37;;;4.37;;
50483;SDS011;36409;52.168;20.878;2023-07-24T00:55:54;6.70;;;4.30;;
50483;SDS011;36409;52.168;20.878;2023-07-24T00:58:23;10.27;;;4.90;;
50483;SDS011;36409;52.168;20.878;2023-07-24T01:00:53;7.27;;;4.50;;
50483;SDS011;36409;52.168;20.878;2023-07-24T01:03:25;7.60;;;4.73;;
50483;SDS011;36409;52.168;20.878;2023-07-24T01:06:01;9.23;;;4.10;;
50483;SDS011;36409;52.168;20.878;2023-07-24T01:08:31;7.63;;;4.70;;
50483;SDS011;36409;52.168;20.878;2023-07-24T01:11:02;9.90;;;4.33;;
50483;SDS011;36409;52.168;20.878;2023-07-24T01:13:37;8.80;;;3.87;;
50483;SDS011;36409;52.168;20.878;2023-07-24T01:18:42;10.37;;;4.10;;
50483;SDS011;36409;52.168;20.878;2023-07-24T01:21:13;9.13;;;4.10;;
50483;SDS011;36409;52.168;20.878;2023-07-24T01:23:54;8.30;;;4.57;;
50483;SDS011;36409;52.168;20.878;2023-07-24T01:26:31;6.73;;;4.33;;
50483;SDS011;36409;52.168;20.878;2023-07-24T01:29:00;6.73;;;4.60;;
50483;SDS011;36409;52.168;20.878;2023-07-24T01:31:29;6.17;;;3.70;;
50483;SDS011;36409;52.168;20.878;2023-07-24T01:33:58;7.57;;;4.30;;
50483;SDS011;36409;52.168;20.878;2023-07-24T01:36:27;8.20;;;4.40;;
50483;SDS011;36409;52.168;20.878;2023-07-24T01:38:58;9.03;;;4.17;;
50483;SDS011;36409;52.168;20.878;2023-07-24T01:41:28;9.57;;;3.97;;
50483;SDS011;36409;52.168;20.878;2023-07-24T01:43:59;7.70;;;4.35;;
50483;SDS011;36409;52.168;20.878;2023-07-24T01:46:29;7.67;;;3.93;;
50483;SDS011;36409;52.168;20.878;2023-07-24T01:49:02;8.83;;;4.00;;
50483;SDS011;36409;52.168;20.878;2023-07-24T01:51:33;5.40;;;3.57;;
50483;SDS011;36409;52.168;20.878;2023-07-24T01:54:02;7.57;;;3.90;;
50483;SDS011;36409;52.168;20.878;2023-07-24T01:56:35;8.60;;;3.83;;
50483;SDS011;36409;52.168;20.878;2023-07-24T01:59:06;6.00;;;3.53;;
50483;SDS011;36409;52.168;20.878;2023-07-24T02:01:35;8.93;;;3.67;;
50483;SDS011;36409;52.168;20.878;2023-07-24T02:04:04;11.50;;;4.07;;
50483;SDS011;36409;52.168;20.878;2023-07-24T02:06:35;6.47;;;3.60;;
50483;SDS011;36409;52.168;20.878;2023-07-24T02:09:04;10.30;;;3.80;;
50483;SDS011;36409;52.168;20.878;2023-07-24T02:11:35;10.77;;;3.90;;
50483;SDS011;36409;52.168;20.878;2023-07-24T02:14:04;8.13;;;4.10;;
50483;SDS011;36409;52.168;20.878;2023-07-24T02:16:33;7.73;;;3.80;;
50483;SDS011;36409;52.168;20.878;2023-07-24T02:19:06;6.17;;;3.53;;
50483;SDS011;36409;52.168;20.878;2023-07-24T02:21:35;9.83;;;3.57;;
50483;SDS011;36409;52.168;20.878;2023-07-24T02:24:06;7.83;;;3.40;;
50483;SDS011;36409;52.168;20.878;2023-07-24T02:26:35;6.03;;;3.27;;
50483;SDS011;36409;52.168;20.878;2023-07-24T02:29:04;5.67;;;3.30;;
50483;SDS011;36409;52.168;20.878;2023-07-24T02:31:33;5.37;;;3.30;;
50483;SDS011;36409;52.168;20.878;2023-07-24T02:34:02;6.80;;;3.53;;
50483;SDS011;36409;52.168;20.878;2023-07-24T02:36:33;8.03;;;3.67;;
50483;SDS011;36409;52.168;20.878;2023-07-24T02:39:02;6.80;;;3.75;;
50483;SDS011;36409;52.168;20.878;2023-07-24T02:41:32;6.30;;;3.60;;
50483;SDS011;36409;52.168;20.878;2023-07-24T02:44:03;6.20;;;3.57;;
50483;SDS011;36409;52.168;20.878;2023-07-24T02:46:32;5.43;;;3.60;;
50483;SDS011;36409;52.168;20.878;2023-07-24T02:49:01;8.67;;;3.60;;
50483;SDS011;36409;52.168;20.878;2023-07-24T02:51:30;8.20;;;3.83;;
50483;SDS011;36409;52.168;20.878;2023-07-24T02:53:59;6.00;;;3.60;;
50483;SDS011;36409;52.168;20.878;2023-07-24T02:56:30;7.47;;;3.10;;
50483;SDS011;36409;52.168;20.878;2023-07-24T02:58:59;5.30;;;3.23;;
50483;SDS011;36409;52.168;20.878;2023-07-24T03:01:28;7.37;;;3.10;;
50483;SDS011;36409;52.168;20.878;2023-07-24T03:03:57;6.30;;;3.30;;
50483;SDS011;36409;52.168;20.878;2023-07-24T03:06:26;5.80;;;3.17;;
50483;SDS011;36409;52.168;20.878;2023-07-24T03:08:58;4.97;;;3.10;;
50483;SDS011;36409;52.168;20.878;2023-07-24T03:11:28;4.63;;;3.00;;
50483;SDS011;36409;52.168;20.878;2023-07-24T03:13:57;7.20;;;3.30;;
50483;SDS011;36409;52.168;20.878;2023-07-24T03:16:28;7.37;;;3.17;;
50483;SDS011;36409;52.168;20.878;2023-07-24T03:18:58;7.17;;;2.93;;
50483;SDS011;36409;52.168;20.878;2023-07-24T03:21:27;7.40;;;3.33;;
50483;SDS011;36409;52.168;20.878;2023-07-24T03:23:59;5.57;;;3.00;;
50483;SDS011;36409;52.168;20.878;2023-07-24T03:26:28;6.93;;;3.20;;
50483;SDS011;36409;52.168;20.878;2023-07-24T03:28:59;7.67;;;3.00;;
50483;SDS011;36409;52.168;20.878;2023-07-24T03:31:28;7.50;;;3.43;;
50483;SDS011;36409;52.168;20.878;2023-07-24T03:33:58;7.50;;;3.37;;
50483;SDS011;36409;52.168;20.878;2023-07-24T03:36:30;9.80;;;3.23;;
50483;SDS011;36409;52.168;20.878;2023-07-24T03:38:59;9.10;;;3.27;;
50483;SDS011;36409;52.168;20.878;2023-07-24T03:41:29;14.17;;;3.57;;
50483;SDS011;36409;52.168;20.878;2023-07-24T03:44:00;7.30;;;2.93;;
50483;SDS011;36409;52.168;20.878;2023-07-24T03:46:29;4.60;;;2.90;;
50483;SDS011;36409;52.168;20.878;2023-07-24T03:48:59;8.37;;;3.20;;
50483;SDS011;36409;52.168;20.878;2023-07-24T03:51:31;5.80;;;3.00;;
50483;SDS011;36409;52.168;20.878;2023-07-24T03:54:00;6.03;;;3.33;;
50483;SDS011;36409;52.168;20.878;2023-07-24T03:56:31;7.17;;;3.07;;
50483;SDS011;36409;52.168;20.878;2023-07-24T03:59:00;6.80;;;3.03;;
50483;SDS011;36409;52.168;20.878;2023-07-24T04:01:29;5.00;;;2.87;;
50483;SDS011;36409;52.168;20.878;2023-07-24T04:03:59;9.00;;;3.30;;
50483;SDS011;36409;52.168;20.878;2023-07-24T04:06:33;8.03;;;3.50;;
50483;SDS011;36409;52.168;20.878;2023-07-24T04:09:02;5.70;;;3.30;;
50483;SDS011;36409;52.168;20.878;2023-07-24T04:11:32;5.23;;;3.10;;
50483;SDS011;36409;52.168;20.878;2023-07-24T04:14:03;7.60;;;3.60;;
50483;SDS011;36409;52.168;20.878;2023-07-24T04:16:32;5.90;;;3.10;;
50483;SDS011;36409;52.168;20.878;2023-07-24T04:19:02;5.27;;;3.10;;
50483;SDS011;36409;52.168;20.878;2023-07-24T04:21:32;6.90;;;3.10;;
50483;SDS011;36409;52.168;20.878;2023-07-24T04:24:05;6.37;;;3.60;;
50483;SDS011;36409;52.168;20.878;2023-07-24T04:26:36;5.57;;;3.20;;
50483;SDS011;36409;52.168;20.878;2023-07-24T04:29:07;5.13;;;2.83;;
50483;SDS011;36409;52.168;20.878;2023-07-24T04:31:37;4.93;;;3.13;;
50483;SDS011;36409;52.168;20.878;2023-07-24T04:34:11;6.40;;;3.57;;
50483;SDS011;36409;52.168;20.878;2023-07-24T04:36:42;9.80;;;3.45;;
50483;SDS011;36409;52.168;20.878;2023-07-24T04:39:12;7.87;;;2.90;;
50483;SDS011;36409;52.168;20.878;2023-07-24T04:41:48;6.20;;;3.17;;
50483;SDS011;36409;52.168;20.878;2023-07-24T04:44:17;5.27;;;3.27;;
50483;SDS011;36409;52.168;20.878;2023-07-24T04:46:47;6.43;;;3.33;;
50483;SDS011;36409;52.168;20.878;2023-07-24T04:49:17;6.43;;;3.00;;
50483;SDS011;36409;52.168;20.878;2023-07-24T04:51:47;6.60;;;3.43;;
50483;SDS011;36409;52.168;20.878;2023-07-24T04:54:17;6.90;;;3.23;;
50483;SDS011;36409;52.168;20.878;2023-07-24T04:56:49;8.78;;;3.17;;
50483;SDS011;36409;52.168;20.878;2023-07-24T04:59:18;5.60;;;3.10;;
50483;SDS011;36409;52.168;20.878;2023-07-24T05:01:49;7.13;;;3.10;;
50483;SDS011;36409;52.168;20.878;2023-07-24T05:04:18;6.33;;;3.00;;
50483;SDS011;36409;52.168;20.878;2023-07-24T05:06:49;10.33;;;3.30;;
50483;SDS011;36409;52.168;20.878;2023-07-24T05:09:18;10.03;;;3.10;;
50483;SDS011;36409;52.168;20.878;2023-07-24T05:11:47;6.10;;;3.73;;
50483;SDS011;36409;52.168;20.878;2023-07-24T05:14:19;13.47;;;3.53;;
50483;SDS011;36409;52.168;20.878;2023-07-24T05:19:18;9.60;;;3.60;;
50483;SDS011;36409;52.168;20.878;2023-07-24T05:21:49;6.57;;;3.13;;
50483;SDS011;36409;52.168;20.878;2023-07-24T05:24:18;5.43;;;3.37;;
50483;SDS011;36409;52.168;20.878;2023-07-24T05:26:49;5.20;;;3.10;;
50483;SDS011;36409;52.168;20.878;2023-07-24T05:29:18;8.47;;;3.67;;
50483;SDS011;36409;52.168;20.878;2023-07-24T05:31:48;6.60;;;2.90;;
50483;SDS011;36409;52.168;20.878;2023-07-24T05:34:19;7.00;;;3.70;;
50483;SDS011;36409;52.168;20.878;2023-07-24T05:36:50;5.53;;;2.93;;
50483;SDS011;36409;52.168;20.878;2023-07-24T05:39:17;5.73;;;2.83;;
50483;SDS011;36409;52.168;20.878;2023-07-24T05:41:49;6.37;;;3.17;;
50483;SDS011;36409;52.168;20.878;2023-07-24T05:44:21;7.63;;;3.17;;
50483;SDS011;36409;52.168;20.878;2023-07-24T05:46:50;6.47;;;2.70;;
50483;SDS011;36409;52.168;20.878;2023-07-24T05:49:23;6.60;;;3.50;;
50483;SDS011;36409;52.168;20.878;2023-07-24T05:51:53;6.70;;;3.20;;
50483;SDS011;36409;52.168;20.878;2023-07-24T05:54:23;7.23;;;3.17;;
50483;SDS011;36409;52.168;20.878;2023-07-24T05:56:53;6.00;;;2.90;;
50483;SDS011;36409;52.168;20.878;2023-07-24T05:59:22;7.17;;;3.60;;
50483;SDS011;36409;52.168;20.878;2023-07-24T06:01:50;5.20;;;3.00;;
50483;SDS011;36409;52.168;20.878;2023-07-24T06:04:19;6.77;;;3.40;;
50483;SDS011;36409;52.168;20.878;2023-07-24T06:06:49;8.03;;;3.63;;
50483;SDS011;36409;52.168;20.878;2023-07-24T06:09:18;5.73;;;3.20;;
50483;SDS011;36409;52.168;20.878;2023-07-24T06:11:49;6.27;;;3.30;;
50483;SDS011;36409;52.168;20.878;2023-07-24T06:14:18;7.40;;;3.00;;
50483;SDS011;36409;52.168;20.878;2023-07-24T06:16:48;7.57;;;3.20;;
50483;SDS011;36409;52.168;20.878;2023-07-24T06:19:19;9.77;;;3.30;;
50483;SDS011;36409;52.168;20.878;2023-07-24T06:21:50;6.37;;;3.23;;
50483;SDS011;36409;52.168;20.878;2023-07-24T06:24:19;7.23;;;3.00;;
50483;SDS011;36409;52.168;20.878;2023-07-24T06:26:51;6.92;;;2.95;;
50483;SDS011;36409;52.168;20.878;2023-07-24T06:29:23;6.40;;;3.37;;
50483;SDS011;36409;52.168;20.878;2023-07-24T06:31:53;5.27;;;3.10;;
50483;SDS011;36409;52.168;20.878;2023-07-24T06:34:22;7.33;;;3.27;;
50483;SDS011;36409;52.168;20.878;2023-07-24T06:36:51;8.73;;;2.93;;
50483;SDS011;36409;52.168;20.878;2023-07-24T06:39:20;8.43;;;3.00;;
50483;SDS011;36409;52.168;20.878;2023-07-24T06:41:50;5.07;;;3.13;;
50483;SDS011;36409;52.168;20.878;2023-07-24T06:44:19;4.30;;;2.67;;
50483;SDS011;36409;52.168;20.878;2023-07-24T06:46:49;5.77;;;3.20;;
50483;SDS011;36409;52.168;20.878;2023-07-24T06:49:18;12.93;;;2.87;;
50483;SDS011;36409;52.168;20.878;2023-07-24T06:51:47;6.00;;;2.77;;
50483;SDS011;36409;52.168;20.878;2023-07-24T06:54:16;6.57;;;3.13;;
50483;SDS011;36409;52.168;20.878;2023-07-24T06:56:45;8.77;;;2.90;;
50483;SDS011;36409;52.168;20.878;2023-07-24T06:59:14;7.67;;;3.10;;
50483;SDS011;36409;52.168;20.878;2023-07-24T07:01:44;6.53;;;3.00;;
50483;SDS011;36409;52.168;20.878;2023-07-24T07:04:13;6.70;;;3.00;;
50483;SDS011;36409;52.168;20.878;2023-07-24T07:06:42;5.03;;;3.17;;
50483;SDS011;36409;52.168;20.878;2023-07-24T07:09:12;6.47;;;3.17;;
50483;SDS011;36409;52.168;20.878;2023-07-24T07:11:40;6.57;;;2.67;;
50483;SDS011;36409;52.168;20.878;2023-07-24T07:14:12;4.90;;;2.80;;
50483;SDS011;36409;52.168;20.878;2023-07-24T07:16:41;6.47;;;3.30;;
50483;SDS011;36409;52.168;20.878;2023-07-24T07:19:11;7.23;;;3.00;;
50483;SDS011;36409;52.168;20.878;2023-07-24T07:21:40;7.47;;;3.17;;
50483;SDS011;36409;52.168;20.878;2023-07-24T07:24:09;4.50;;;2.70;;
50483;SDS011;36409;52.168;20.878;2023-07-24T07:26:38;6.63;;;3.03;;
50483;SDS011;36409;52.168;20.878;2023-07-24T07:29:08;5.00;;;2.80;;
50483;SDS011;36409;52.168;20.878;2023-07-24T07:31:37;4.90;;;2.50;;
50483;SDS011;36409;52.168;20.878;2023-07-24T07:34:09;4.57;;;2.90;;
50483;SDS011;36409;52.168;20.878;2023-07-24T07:36:38;5.00;;;3.03;;
50483;SDS011;36409;52.168;20.878;2023-07-24T07:39:07;6.30;;;2.90;;
50483;SDS011;36409;52.168;20.878;2023-07-24T07:41:36;8.40;;;2.87;;
50483;SDS011;36409;52.168;20.878;2023-07-24T07:44:05;5.57;;;2.90;;
50483;SDS011;36409;52.168;20.878;2023-07-24T07:46:34;4.37;;;2.63;;
50483;SDS011;36409;52.168;20.878;2023-07-24T07:49:06;7.53;;;2.67;;
50483;SDS011;36409;52.168;20.878;2023-07-24T07:51:35;6.70;;;2.73;;
50483;SDS011;36409;52.168;20.878;2023-07-24T07:54:05;7.17;;;2.70;;
50483;SDS011;36409;52.168;20.878;2023-07-24T07:56:34;6.50;;;2.73;;
50483;SDS011;36409;52.168;20.878;2023-07-24T07:59:04;4.30;;;2.60;;
50483;SDS011;36409;52.168;20.878;2023-07-24T08:01:35;5.70;;;2.70;;
50483;SDS011;36409;52.168;20.878;2023-07-24T08:04:06;5.33;;;2.50;;
50483;SDS011;36409;52.168;20.878;2023-07-24T08:06:38;5.67;;;2.70;;
50483;SDS011;36409;52.168;20.878;2023-07-24T08:09:07;5.87;;;2.43;;
50483;SDS011;36409;52.168;20.878;2023-07-24T08:11:36;4.30;;;2.60;;
50483;SDS011;36409;52.168;20.878;2023-07-24T08:14:05;4.40;;;2.50;;
50483;SDS011;36409;52.168;20.878;2023-07-24T08:16:40;4.45;;;2.55;;
50483;SDS011;36409;52.168;20.878;2023-07-24T08:19:11;6.27;;;2.67;;
50483;SDS011;36409;52.168;20.878;2023-07-24T08:21:40;9.17;;;2.77;;
50483;SDS011;36409;52.168;20.878;2023-07-24T08:24:09;5.00;;;2.43;;
50483;SDS011;36409;52.168;20.878;2023-07-24T08:26:38;4.70;;;2.47;;
50483;SDS011;36409;52.168;20.878;2023-07-24T08:29:07;8.60;;;2.80;;
50483;SDS011;36409;52.168;20.878;2023-07-24T08:31:41;4.83;;;2.17;;
50483;SDS011;36409;52.168;20.878;2023-07-24T08:34:10;7.63;;;2.80;;
50483;SDS011;36409;52.168;20.878;2023-07-24T08:36:39;4.40;;;2.40;;
50483;SDS011;36409;52.168;20.878;2023-07-24T08:39:08;5.77;;;2.77;;
50483;SDS011;36409;52.168;20.878;2023-07-24T08:41:39;5.73;;;2.27;;
50483;SDS011;36409;52.168;20.878;2023-07-24T08:44:08;7.00;;;2.47;;
50483;SDS011;36409;52.168;20.878;2023-07-24T08:46:38;5.13;;;2.80;;
50483;SDS011;36409;52.168;20.878;2023-07-24T08:49:10;6.47;;;2.57;;
50483;SDS011;36409;52.168;20.878;2023-07-24T08:51:40;4.35;;;2.40;;
50483;SDS011;36409;52.168;20.878;2023-07-24T08:54:12;3.77;;;2.20;;
50483;SDS011;36409;52.168;20.878;2023-07-24T08:56:44;4.05;;;2.33;;
50483;SDS011;36409;52.168;20.878;2023-07-24T08:59:15;3.97;;;2.40;;
50483;SDS011;36409;52.168;20.878;2023-07-24T09:01:45;6.87;;;2.60;;
50483;SDS011;36409;52.168;20.878;2023-07-24T09:04:14;6.17;;;2.40;;
50483;SDS011;36409;52.168;20.878;2023-07-24T09:06:43;3.90;;;2.40;;
50483;SDS011;36409;52.168;20.878;2023-07-24T09:09:13;3.85;;;2.25;;
50483;SDS011;36409;52.168;20.878;2023-07-24T09:11:46;6.13;;;2.50;;
50483;SDS011;36409;52.168;20.878;2023-07-24T09:14:22;4.13;;;2.43;;
50483;SDS011;36409;52.168;20.878;2023-07-24T09:17:02;4.33;;;2.40;;
50483;SDS011;36409;52.168;20.878;2023-07-24T09:19:36;6.67;;;2.47;;
50483;SDS011;36409;52.168;20.878;2023-07-24T09:22:14;3.83;;;2.33;;
50483;SDS011;36409;52.168;20.878;2023-07-24T09:24:49;4.83;;;2.40;;
50483;SDS011;36409;52.168;20.878;2023-07-24T09:27:19;6.00;;;2.40;;
50483;SDS011;36409;52.168;20.878;2023-07-24T09:29:51;5.40;;;2.80;;
50483;SDS011;36409;52.168;20.878;2023-07-24T09:32:22;5.00;;;2.23;;
50483;SDS011;36409;52.168;20.878;2023-07-24T09:34:52;6.70;;;2.50;;
50483;SDS011;36409;52.168;20.878;2023-07-24T09:37:25;4.53;;;2.33;;
50483;SDS011;36409;52.168;20.878;2023-07-24T09:39:55;7.97;;;2.63;;
50483;SDS011;36409;52.168;20.878;2023-07-24T09:42:30;4.03;;;2.60;;
50483;SDS011;36409;52.168;20.878;2023-07-24T09:45:00;5.27;;;2.50;;
50483;SDS011;36409;52.168;20.878;2023-07-24T09:47:34;4.10;;;2.50;;
50483;SDS011;36409;52.168;20.878;2023-07-24T09:50:23;5.07;;;2.37;;
50483;SDS011;36409;52.168;20.878;2023-07-24T09:52:52;5.87;;;2.17;;
50483;SDS011;36409;52.168;20.878;2023-07-24T09:55:25;4.53;;;2.67;;
50483;SDS011;36409;52.168;20.878;2023-07-24T09:58:01;8.73;;;2.73;;
50483;SDS011;36409;52.168;20.878;2023-07-24T10:00:31;4.30;;;2.50;;
50483;SDS011;36409;52.168;20.878;2023-07-24T10:03:01;5.83;;;2.33;;
50483;SDS011;36409;52.168;20.878;2023-07-24T10:05:31;12.57;;;2.70;;
50483;SDS011;36409;52.168;20.878;2023-07-24T10:08:01;5.77;;;2.53;;
50483;SDS011;36409;52.168;20.878;2023-07-24T10:10:32;7.50;;;2.70;;
50483;SDS011;36409;52.168;20.878;2023-07-24T10:13:02;6.70;;;2.73;;
50483;SDS011;36409;52.168;20.878;2023-07-24T10:15:33;4.20;;;2.37;;
50483;SDS011;36409;52.168;20.878;2023-07-24T10:18:03;4.37;;;2.63;;
50483;SDS011;36409;52.168;20.878;2023-07-24T10:20:33;4.67;;;2.80;;
50483;SDS011;36409;52.168;20.878;2023-07-24T10:23:03;6.80;;;2.57;;
50483;SDS011;36409;52.168;20.878;2023-07-24T10:25:34;4.40;;;2.60;;
50483;SDS011;36409;52.168;20.878;2023-07-24T10:28:08;4.00;;;2.60;;
50483;SDS011;36409;52.168;20.878;2023-07-24T10:30:39;4.87;;;2.83;;
50483;SDS011;36409;52.168;20.878;2023-07-24T10:33:09;7.27;;;2.40;;
50483;SDS011;36409;52.168;20.878;2023-07-24T10:35:42;3.90;;;2.60;;
50483;SDS011;36409;52.168;20.878;2023-07-24T10:38:13;6.93;;;3.03;;
50483;SDS011;36409;52.168;20.878;2023-07-24T10:40:44;4.90;;;2.90;;
50483;SDS011;36409;52.168;20.878;2023-07-24T10:43:17;6.57;;;3.00;;
50483;SDS011;36409;52.168;20.878;2023-07-24T10:45:50;5.50;;;3.30;;
50483;SDS011;36409;52.168;20.878;2023-07-24T10:48:21;8.77;;;3.10;;
50483;SDS011;36409;52.168;20.878;2023-07-24T10:50:52;5.07;;;3.20;;
50483;SDS011;36409;52.168;20.878;2023-07-24T10:53:23;6.67;;;3.00;;
50483;SDS011;36409;52.168;20.878;2023-07-24T10:55:54;6.00;;;2.90;;
50483;SDS011;36409;52.168;20.878;2023-07-24T10:58:25;4.53;;;2.90;;
50483;SDS011;36409;52.168;20.878;2023-07-24T11:00:55;5.10;;;2.98;;
50483;SDS011;36409;52.168;20.878;2023-07-24T11:03:26;4.37;;;3.00;;
50483;SDS011;36409;52.168;20.878;2023-07-24T11:05:56;5.83;;;2.87;;
50483;SDS011;36409;52.168;20.878;2023-07-24T11:08:26;5.60;;;3.10;;
50483;SDS011;36409;52.168;20.878;2023-07-24T11:10:56;4.97;;;2.93;;
50483;SDS011;36409;52.168;20.878;2023-07-24T11:13:27;6.70;;;2.90;;
50483;SDS011;36409;52.168;20.878;2023-07-24T11:15:57;4.50;;;3.03;;
50483;SDS011;36409;52.168;20.878;2023-07-24T11:18:32;5.07;;;3.00;;
50483;SDS011;36409;52.168;20.878;2023-07-24T11:21:21;15.17;;;3.30;;
50483;SDS011;36409;52.168;20.878;2023-07-24T11:23:51;6.23;;;2.87;;
50483;SDS011;36409;52.168;20.878;2023-07-24T11:26:22;5.73;;;2.90;;
50483;SDS011;36409;52.168;20.878;2023-07-24T11:28:53;5.80;;;3.00;;
50483;SDS011;36409;52.168;20.878;2023-07-24T11:31:22;5.47;;;3.10;;
50483;SDS011;36409;52.168;20.878;2023-07-24T11:33:52;4.80;;;2.97;;
50483;SDS011;36409;52.168;20.878;2023-07-24T11:36:22;6.33;;;3.20;;
50483;SDS011;36409;52.168;20.878;2023-07-24T11:38:52;5.80;;;3.20;;
50483;SDS011;36409;52.168;20.878;2023-07-24T11:41:23;5.00;;;3.03;;
50483;SDS011;36409;52.168;20.878;2023-07-24T11:46:23;6.53;;;2.97;;
50483;SDS011;36409;52.168;20.878;2023-07-24T11:48:52;5.00;;;3.00;;
50483;SDS011;36409;52.168;20.878;2023-07-24T11:51:24;4.67;;;3.00;;
50483;SDS011;36409;52.168;20.878;2023-07-24T11:54:04;4.77;;;2.90;;
50483;SDS011;36409;52.168;20.878;2023-07-24T11:56:35;6.30;;;2.80;;
50483;SDS011;36409;52.168;20.878;2023-07-24T11:59:11;4.73;;;3.00;;
50483;SDS011;36409;52.168;20.878;2023-07-24T12:01:41;5.30;;;3.13;;
50483;SDS011;36409;52.168;20.878;2023-07-24T12:04:15;7.67;;;3.00;;
50483;SDS011;36409;52.168;20.878;2023-07-24T12:06:46;5.40;;;2.70;;
50483;SDS011;36409;52.168;20.878;2023-07-24T12:09:15;6.80;;;3.30;;
50483;SDS011;36409;52.168;20.878;2023-07-24T12:11:44;8.77;;;2.80;;
50483;SDS011;36409;52.168;20.878;2023-07-24T12:14:14;6.47;;;2.70;;
50483;SDS011;36409;52.168;20.878;2023-07-24T12:16:43;4.30;;;2.83;;
50483;SDS011;36409;52.168;20.878;2023-07-24T12:19:12;3.83;;;2.60;;
50483;SDS011;36409;52.168;20.878;2023-07-24T12:21:41;5.30;;;3.17;;
50483;SDS011;36409;52.168;20.878;2023-07-24T12:24:10;6.67;;;2.93;;
50483;SDS011;36409;52.168;20.878;2023-07-24T12:26:39;4.73;;;3.13;;
50483;SDS011;36409;52.168;20.878;2023-07-24T12:29:08;7.90;;;2.70;;
50483;SDS011;36409;52.168;20.878;2023-07-24T12:31:37;7.93;;;2.83;;
50483;SDS011;36409;52.168;20.878;2023-07-24T12:34:06;3.93;;;2.63;;
50483;SDS011;36409;52.168;20.878;2023-07-24T12:36:34;4.90;;;2.87;;
50483;SDS011;36409;52.168;20.878;2023-07-24T12:39:03;4.73;;;2.70;;
50483;SDS011;36409;52.168;20.878;2023-07-24T12:41:32;5.27;;;2.80;;
50483;SDS011;36409;52.168;20.878;2023-07-24T12:44:01;5.63;;;3.07;;
50483;SDS011;36409;52.168;20.878;2023-07-24T12:46:30;7.27;;;2.90;;
50483;SDS011;36409;52.168;20.878;2023-07-24T12:49:00;4.95;;;3.25;;
50483;SDS011;36409;52.168;20.878;2023-07-24T12:51:29;4.50;;;2.63;;
50483;SDS011;36409;52.168;20.878;2023-07-24T12:53:59;5.77;;;2.87;;
50483;SDS011;36409;52.168;20.878;2023-07-24T12:56:46;5.95;;;2.80;;
50483;SDS011;36409;52.168;20.878;2023-07-24T12:59:15;6.13;;;3.00;;
50483;SDS011;36409;52.168;20.878;2023-07-24T13:01:45;5.47;;;3.10;;
50483;SDS011;36409;52.168;20.878;2023-07-24T13:04:13;7.83;;;3.07;;
50483;SDS011;36409;52.168;20.878;2023-07-24T13:06:45;4.80;;;3.27;;
50483;SDS011;36409;52.168;20.878;2023-07-24T13:09:14;4.77;;;2.80;;
50483;SDS011;36409;52.168;20.878;2023-07-24T13:11:43;5.60;;;3.20;;
50483;SDS011;36409;52.168;20.878;2023-07-24T13:14:15;5.47;;;3.20;;
50483;SDS011;36409;52.168;20.878;2023-07-24T13:16:44;7.57;;;3.30;;
50483;SDS011;36409;52.168;20.878;2023-07-24T13:19:13;4.50;;;2.90;;
50483;SDS011;36409;52.168;20.878;2023-07-24T13:21:42;7.33;;;3.13;;
50483;SDS011;36409;52.168;20.878;2023-07-24T13:24:13;5.20;;;3.47;;
50483;SDS011;36409;52.168;20.878;2023-07-24T13:26:42;4.37;;;3.23;;
50483;SDS011;36409;52.168;20.878;2023-07-24T13:29:12;8.03;;;3.80;;
50483;SDS011;36409;52.168;20.878;2023-07-24T13:31:40;7.10;;;3.35;;
50483;SDS011;36409;52.168;20.878;2023-07-24T13:34:09;5.50;;;3.57;;
50483;SDS011;36409;52.168;20.878;2023-07-24T13:36:38;5.90;;;3.43;;
50483;SDS011;36409;52.168;20.878;2023-07-24T13:39:07;7.37;;;3.70;;
50483;SDS011;36409;52.168;20.878;2023-07-24T13:41:36;9.63;;;3.67;;
50483;SDS011;36409;52.168;20.878;2023-07-24T13:44:05;10.43;;;3.53;;
50483;SDS011;36409;52.168;20.878;2023-07-24T13:46:34;7.43;;;3.73;;
50483;SDS011;36409;52.168;20.878;2023-07-24T13:49:07;6.92;;;3.85;;
50483;SDS011;36409;52.168;20.878;2023-07-24T13:51:36;5.60;;;3.33;;
50483;SDS011;36409;52.168;20.878;2023-07-24T13:54:05;5.43;;;3.30;;
50483;SDS011;36409;52.168;20.878;2023-07-24T13:56:34;6.90;;;3.47;;
50483;SDS011;36409;52.168;20.878;2023-07-24T13:59:03;5.33;;;3.20;;
50483;SDS011;36409;52.168;20.878;2023-07-24T14:01:32;7.73;;;3.53;;
50483;SDS011;36409;52.168;20.878;2023-07-24T14:04:02;4.80;;;3.17;;
50483;SDS011;36409;52.168;20.878;2023-07-24T14:06:31;5.17;;;2.80;;
50483;SDS011;36409;52.168;20.878;2023-07-24T14:09:00;7.60;;;3.13;;
50483;SDS011;36409;52.168;20.878;2023-07-24T14:11:30;4.60;;;2.60;;
50483;SDS011;36409;52.168;20.878;2023-07-24T14:13:59;7.87;;;3.10;;
50483;SDS011;36409;52.168;20.878;2023-07-24T14:16:28;5.57;;;3.10;;
50483;SDS011;36409;52.168;20.878;2023-07-24T14:18:57;5.57;;;3.13;;
50483;SDS011;36409;52.168;20.878;2023-07-24T14:21:26;4.40;;;3.00;;
50483;SDS011;36409;52.168;20.878;2023-07-24T14:23:56;5.47;;;3.20;;
50483;SDS011;36409;52.168;20.878;2023-07-24T14:26:25;4.73;;;3.10;;
50483;SDS011;36409;52.168;20.878;2023-07-24T14:28:54;4.67;;;3.20;;
50483;SDS011;36409;52.168;20.878;2023-07-24T14:31:24;4.83;;;2.93;;
50483;SDS011;36409;52.168;20.878;2023-07-24T14:33:53;6.53;;;3.50;;
50483;SDS011;36409;52.168;20.878;2023-07-24T14:36:23;9.87;;;3.40;;
50483;SDS011;36409;52.168;20.878;2023-07-24T14:41:23;4.40;;;3.10;;
50483;SDS011;36409;52.168;20.878;2023-07-24T14:43:52;4.77;;;2.83;;
50483;SDS011;36409;52.168;20.878;2023-07-24T14:46:21;8.45;;;3.70;;
50483;SDS011;36409;52.168;20.878;2023-07-24T14:48:50;6.97;;;3.53;;
50483;SDS011;36409;52.168;20.878;2023-07-24T14:51:19;5.27;;;3.60;;
50483;SDS011;36409;52.168;20.878;2023-07-24T14:53:51;5.40;;;3.53;;
50483;SDS011;36409;52.168;20.878;2023-07-24T14:56:19;4.97;;;3.03;;
50483;SDS011;36409;52.168;20.878;2023-07-24T14:58:49;8.20;;;3.50;;
50483;SDS011;36409;52.168;20.878;2023-07-24T15:01:18;9.50;;;3.40;;